sensor_id;sensor_type;location;lat;lon;timestamp;P1;durP1;ratioP1;P2;durP2;ratioP2
2039;SDS011;1025;42.686;23.350;2023-04-16T00:01:36;4.13;;;3.10;;
2039;SDS011;1025;42.686;23.350;2023-04-16T00:05:01;5.73;;;3.27;;
2039;SDS011;1025;42.686;23.350;2023-04-16T00:08:27;4.13;;;3.83;;
2039;SDS011;1025;42.686;23.350;2023-04-16T00:11:52;5.57;;;3.97;;
2039;SDS011;1025;42.686;23.350;2023-04-16T00:15:19;4.57;;;4.17;;
2039;SDS011;1025;42.686;23.350;2023-04-16T00:18:44;7.37;;;3.90;;
2039;SDS011;1025;42.686;23.350;2023-04-16T00:22:09;3.80;;;3.50;;
2039;SDS011;1025;42.686;23.350;2023-04-16T00:25:35;5.13;;;3.70;;
2039;SDS011;1025;42.686;23.350;2023-04-16T00:29:00;8.17;;;3.87;;
2039;SDS011;1025;42.686;23.350;2023-04-16T00:32:27;5.10;;;3.90;;
2039;SDS011;1025;42.686;23.350;2023-04-16T00:35:54;4.07;;;3.50;;
2039;SDS011;1025;42.686;23.350;2023-04-16T00:39:19;9.60;;;4.10;;
2039;SDS011;1025;42.686;23.350;2023-04-16T00:42:44;7.20;;;3.40;;
2039;SDS011;1025;42.686;23.350;2023-04-16T00:46:10;4.30;;;3.67;;
2039;SDS011;1025;42.686;23.350;2023-04-16T00:49:37;3.40;;;3.10;;
2039;SDS011;1025;42.686;23.350;2023-04-16T00:53:03;5.33;;;3.43;;
2039;SDS011;1025;42.686;23.350;2023-04-16T00:56:30;5.30;;;3.97;;
2039;SDS011;1025;42.686;23.350;2023-04-16T00:59:56;11.63;;;6.00;;
2039;SDS011;1025;42.686;23.350;2023-04-16T01:03:21;6.90;;;3.87;;
2039;SDS011;1025;42.686;23.350;2023-04-16T01:06:48;6.97;;;4.00;;
2039;SDS011;1025;42.686;23.350;2023-04-16T01:10:13;4.90;;;4.40;;
2039;SDS011;1025;42.686;23.350;2023-04-16T01:13:39;5.33;;;4.80;;
2039;SDS011;1025;42.686;23.350;2023-04-16T01:17:04;5.40;;;4.90;;
2039;SDS011;1025;42.686;23.350;2023-04-16T01:20:39;5.70;;;4.60;;
2039;SDS011;1025;42.686;23.350;2023-04-16T01:24:05;7.20;;;5.63;;
2039;SDS011;1025;42.686;23.350;2023-04-16T01:27:31;6.27;;;5.63;;
2039;SDS011;1025;42.686;23.350;2023-04-16T01:30:56;6.80;;;4.93;;
2039;SDS011;1025;42.686;23.350;2023-04-16T01:34:21;8.00;;;6.90;;
2039;SDS011;1025;42.686;23.350;2023-04-16T01:37:49;6.30;;;4.70;;
2039;SDS011;1025;42.686;23.350;2023-04-16T01:41:15;10.73;;;5.30;;
2039;SDS011;1025;42.686;23.350;2023-04-16T01:44:40;5.13;;;4.63;;
2039;SDS011;1025;42.686;23.350;2023-04-16T01:48:06;9.00;;;4.70;;
2039;SDS011;1025;42.686;23.350;2023-04-16T01:51:32;5.83;;;4.40;;
2039;SDS011;1025;42.686;23.350;2023-04-16T01:54:59;6.57;;;5.43;;
2039;SDS011;1025;42.686;23.350;2023-04-16T01:58:24;7.73;;;5.27;;
2039;SDS011;1025;42.686;23.350;2023-04-16T02:01:51;6.30;;;4.73;;
2039;SDS011;1025;42.686;23.350;2023-04-16T02:05:18;5.43;;;4.90;;
2039;SDS011;1025;42.686;23.350;2023-04-16T02:08:43;7.00;;;4.67;;
2039;SDS011;1025;42.686;23.350;2023-04-16T02:12:10;5.70;;;5.10;;
2039;SDS011;1025;42.686;23.350;2023-04-16T02:15:35;6.73;;;5.67;;
2039;SDS011;1025;42.686;23.350;2023-04-16T02:19:00;6.30;;;4.97;;
2039;SDS011;1025;42.686;23.350;2023-04-16T02:22:27;7.50;;;6.80;;
2039;SDS011;1025;42.686;23.350;2023-04-16T02:25:53;6.77;;;5.70;;
2039;SDS011;1025;42.686;23.350;2023-04-16T02:29:22;6.80;;;6.20;;
2039;SDS011;1025;42.686;23.350;2023-04-16T02:32:47;9.53;;;5.53;;
2039;SDS011;1025;42.686;23.350;2023-04-16T02:36:12;7.13;;;5.00;;
2039;SDS011;1025;42.686;23.350;2023-04-16T02:39:39;6.00;;;5.50;;
2039;SDS011;1025;42.686;23.350;2023-04-16T02:43:04;3.27;;;2.97;;
2039;SDS011;1025;42.686;23.350;2023-04-16T02:46:31;3.10;;;2.87;;
2039;SDS011;1025;42.686;23.350;2023-04-16T02:49:56;5.63;;;4.30;;
2039;SDS011;1025;42.686;23.350;2023-04-16T02:53:22;6.87;;;4.97;;
2039;SDS011;1025;42.686;23.350;2023-04-16T02:56:47;4.93;;;4.50;;
2039;SDS011;1025;42.686;23.350;2023-04-16T03:00:12;6.37;;;5.77;;
2039;SDS011;1025;42.686;23.350;2023-04-16T03:03:39;5.03;;;2.97;;
2039;SDS011;1025;42.686;23.350;2023-04-16T03:07:04;4.70;;;4.20;;
2039;SDS011;1025;42.686;23.350;2023-04-16T03:10:30;5.50;;;4.70;;
2039;SDS011;1025;42.686;23.350;2023-04-16T03:13:55;3.17;;;2.73;;
2039;SDS011;1025;42.686;23.350;2023-04-16T03:17:21;2.60;;;2.40;;
2039;SDS011;1025;42.686;23.350;2023-04-16T03:20:51;2.80;;;2.60;;
2039;SDS011;1025;42.686;23.350;2023-04-16T03:24:16;3.30;;;3.00;;
2039;SDS011;1025;42.686;23.350;2023-04-16T03:27:42;3.90;;;3.20;;
2039;SDS011;1025;42.686;23.350;2023-04-16T03:31:07;3.13;;;2.93;;
2039;SDS011;1025;42.686;23.350;2023-04-16T03:34:32;3.10;;;2.90;;
2039;SDS011;1025;42.686;23.350;2023-04-16T03:37:59;3.63;;;2.87;;
2039;SDS011;1025;42.686;23.350;2023-04-16T03:41:25;7.50;;;3.70;;
2039;SDS011;1025;42.686;23.350;2023-04-16T03:44:50;5.73;;;4.43;;
2039;SDS011;1025;42.686;23.350;2023-04-16T03:48:16;7.83;;;5.37;;
2039;SDS011;1025;42.686;23.350;2023-04-16T03:51:42;5.57;;;5.07;;
2039;SDS011;1025;42.686;23.350;2023-04-16T03:55:09;11.53;;;6.33;;
2039;SDS011;1025;42.686;23.350;2023-04-16T03:58:35;9.10;;;6.43;;
2039;SDS011;1025;42.686;23.350;2023-04-16T04:02:00;8.83;;;7.43;;
2039;SDS011;1025;42.686;23.350;2023-04-16T04:05:26;11.17;;;6.30;;
2039;SDS011;1025;42.686;23.350;2023-04-16T04:08:51;8.47;;;5.90;;
2039;SDS011;1025;42.686;23.350;2023-04-16T04:12:18;6.90;;;6.30;;
2039;SDS011;1025;42.686;23.350;2023-04-16T04:15:44;9.80;;;6.20;;
2039;SDS011;1025;42.686;23.350;2023-04-16T04:19:10;6.13;;;5.63;;
2039;SDS011;1025;42.686;23.350;2023-04-16T04:22:36;6.40;;;5.90;;
2039;SDS011;1025;42.686;23.350;2023-04-16T04:26:01;6.83;;;6.23;;
2039;SDS011;1025;42.686;23.350;2023-04-16T04:29:28;6.00;;;5.27;;
2039;SDS011;1025;42.686;23.350;2023-04-16T04:32:53;7.83;;;5.33;;
2039;SDS011;1025;42.686;23.350;2023-04-16T04:36:19;9.50;;;5.87;;
2039;SDS011;1025;42.686;23.350;2023-04-16T04:39:44;6.40;;;5.80;;
2039;SDS011;1025;42.686;23.350;2023-04-16T04:43:10;7.17;;;5.30;;
2039;SDS011;1025;42.686;23.350;2023-04-16T04:46:36;5.67;;;5.17;;
2039;SDS011;1025;42.686;23.350;2023-04-16T04:50:02;7.77;;;5.00;;
2039;SDS011;1025;42.686;23.350;2023-04-16T04:53:28;6.67;;;5.00;;
2039;SDS011;1025;42.686;23.350;2023-04-16T04:56:53;9.27;;;5.87;;
2039;SDS011;1025;42.686;23.350;2023-04-16T05:00:19;7.33;;;4.90;;
2039;SDS011;1025;42.686;23.350;2023-04-16T05:03:45;9.10;;;4.83;;
2039;SDS011;1025;42.686;23.350;2023-04-16T05:07:11;6.73;;;5.10;;
2039;SDS011;1025;42.686;23.350;2023-04-16T05:10:36;6.23;;;5.23;;
2039;SDS011;1025;42.686;23.350;2023-04-16T05:14:01;5.60;;;4.60;;
2039;SDS011;1025;42.686;23.350;2023-04-16T05:17:26;6.10;;;4.93;;
2039;SDS011;1025;42.686;23.350;2023-04-16T05:20:53;5.30;;;4.80;;
2039;SDS011;1025;42.686;23.350;2023-04-16T05:24:19;9.03;;;5.83;;
2039;SDS011;1025;42.686;23.350;2023-04-16T05:27:44;4.77;;;4.37;;
2039;SDS011;1025;42.686;23.350;2023-04-16T05:31:10;26.50;;;7.23;;
2039;SDS011;1025;42.686;23.350;2023-04-16T05:34:35;9.90;;;4.03;;
2039;SDS011;1025;42.686;23.350;2023-04-16T05:38:02;11.60;;;5.20;;
2039;SDS011;1025;42.686;23.350;2023-04-16T05:41:27;9.73;;;6.30;;
2039;SDS011;1025;42.686;23.350;2023-04-16T05:44:52;5.17;;;4.77;;
2039;SDS011;1025;42.686;23.350;2023-04-16T05:48:17;9.03;;;5.60;;
2039;SDS011;1025;42.686;23.350;2023-04-16T05:51:44;7.23;;;5.50;;
2039;SDS011;1025;42.686;23.350;2023-04-16T05:55:10;6.90;;;5.73;;
2039;SDS011;1025;42.686;23.350;2023-04-16T05:58:35;6.00;;;4.80;;
2039;SDS011;1025;42.686;23.350;2023-04-16T06:02:01;9.43;;;5.80;;
2039;SDS011;1025;42.686;23.350;2023-04-16T06:05:27;10.07;;;5.93;;
2039;SDS011;1025;42.686;23.350;2023-04-16T06:08:52;5.93;;;5.43;;
2039;SDS011;1025;42.686;23.350;2023-04-16T06:12:19;8.30;;;5.17;;
2039;SDS011;1025;42.686;23.350;2023-04-16T06:15:44;12.17;;;5.40;;
2039;SDS011;1025;42.686;23.350;2023-04-16T06:19:10;9.33;;;6.00;;
2039;SDS011;1025;42.686;23.350;2023-04-16T06:22:36;9.23;;;6.73;;
2039;SDS011;1025;42.686;23.350;2023-04-16T06:26:01;9.07;;;6.80;;
2039;SDS011;1025;42.686;23.350;2023-04-16T06:29:28;11.70;;;7.20;;
2039;SDS011;1025;42.686;23.350;2023-04-16T06:32:53;7.77;;;5.97;;
2039;SDS011;1025;42.686;23.350;2023-04-16T06:36:19;7.23;;;5.53;;
2039;SDS011;1025;42.686;23.350;2023-04-16T06:39:44;6.27;;;5.43;;
2039;SDS011;1025;42.686;23.350;2023-04-16T06:43:10;7.50;;;5.30;;
2039;SDS011;1025;42.686;23.350;2023-04-16T06:46:36;6.00;;;4.63;;
2039;SDS011;1025;42.686;23.350;2023-04-16T06:50:01;5.93;;;4.63;;
2039;SDS011;1025;42.686;23.350;2023-04-16T06:53:27;7.57;;;5.70;;
2039;SDS011;1025;42.686;23.350;2023-04-16T06:56:52;6.40;;;4.57;;
2039;SDS011;1025;42.686;23.350;2023-04-16T07:00:17;5.87;;;3.70;;
2039;SDS011;1025;42.686;23.350;2023-04-16T07:03:44;4.70;;;3.60;;
2039;SDS011;1025;42.686;23.350;2023-04-16T07:07:09;3.33;;;3.00;;
2039;SDS011;1025;42.686;23.350;2023-04-16T07:10:35;4.53;;;4.03;;
2039;SDS011;1025;42.686;23.350;2023-04-16T07:14:00;6.23;;;4.40;;
2039;SDS011;1025;42.686;23.350;2023-04-16T07:17:25;4.07;;;3.70;;
2039;SDS011;1025;42.686;23.350;2023-04-16T07:20:52;4.37;;;3.97;;
2039;SDS011;1025;42.686;23.350;2023-04-16T07:24:18;6.30;;;4.43;;
2039;SDS011;1025;42.686;23.350;2023-04-16T07:27:43;4.63;;;3.77;;
2039;SDS011;1025;42.686;23.350;2023-04-16T07:31:08;5.70;;;3.60;;
2039;SDS011;1025;42.686;23.350;2023-04-16T07:34:33;8.80;;;3.73;;
2039;SDS011;1025;42.686;23.350;2023-04-16T07:38:00;4.13;;;3.50;;
2039;SDS011;1025;42.686;23.350;2023-04-16T07:41:25;6.80;;;3.73;;
2039;SDS011;1025;42.686;23.350;2023-04-16T07:44:51;5.80;;;3.67;;
2039;SDS011;1025;42.686;23.350;2023-04-16T07:48:16;3.07;;;2.77;;
2039;SDS011;1025;42.686;23.350;2023-04-16T07:51:42;3.27;;;3.07;;
2039;SDS011;1025;42.686;23.350;2023-04-16T07:55:10;4.50;;;3.53;;
2039;SDS011;1025;42.686;23.350;2023-04-16T07:58:36;3.33;;;2.70;;
2039;SDS011;1025;42.686;23.350;2023-04-16T08:02:01;4.70;;;2.60;;
2039;SDS011;1025;42.686;23.350;2023-04-16T08:05:26;3.90;;;3.40;;
2039;SDS011;1025;42.686;23.350;2023-04-16T08:08:52;4.27;;;3.77;;
2039;SDS011;1025;42.686;23.350;2023-04-16T08:12:19;3.53;;;3.23;;
2039;SDS011;1025;42.686;23.350;2023-04-16T08:15:45;5.47;;;3.50;;
2039;SDS011;1025;42.686;23.350;2023-04-16T08:19:10;4.70;;;3.77;;
2039;SDS011;1025;42.686;23.350;2023-04-16T08:22:35;6.80;;;3.70;;
2039;SDS011;1025;42.686;23.350;2023-04-16T08:26:01;5.40;;;3.17;;
2039;SDS011;1025;42.686;23.350;2023-04-16T08:29:27;4.03;;;2.90;;
2039;SDS011;1025;42.686;23.350;2023-04-16T08:32:53;3.53;;;2.70;;
2039;SDS011;1025;42.686;23.350;2023-04-16T08:36:18;8.60;;;3.43;;
2039;SDS011;1025;42.686;23.350;2023-04-16T08:39:44;4.13;;;2.83;;
2039;SDS011;1025;42.686;23.350;2023-04-16T08:43:11;4.80;;;2.73;;
2039;SDS011;1025;42.686;23.350;2023-04-16T08:46:43;3.30;;;2.60;;
2039;SDS011;1025;42.686;23.350;2023-04-16T08:50:11;5.30;;;2.97;;
2039;SDS011;1025;42.686;23.350;2023-04-16T08:53:42;4.00;;;2.80;;
2039;SDS011;1025;42.686;23.350;2023-04-16T08:57:11;3.27;;;2.60;;
2039;SDS011;1025;42.686;23.350;2023-04-16T09:00:39;3.10;;;2.90;;
2039;SDS011;1025;42.686;23.350;2023-04-16T09:04:07;6.50;;;3.10;;
2039;SDS011;1025;42.686;23.350;2023-04-16T09:07:35;5.80;;;2.87;;
2039;SDS011;1025;42.686;23.350;2023-04-16T09:11:02;4.20;;;2.70;;
2039;SDS011;1025;42.686;23.350;2023-04-16T09:14:27;3.20;;;2.90;;
2039;SDS011;1025;42.686;23.350;2023-04-16T09:17:53;5.10;;;2.83;;
2039;SDS011;1025;42.686;23.350;2023-04-16T09:21:20;4.60;;;3.40;;
2039;SDS011;1025;42.686;23.350;2023-04-16T09:24:45;7.10;;;3.00;;
2039;SDS011;1025;42.686;23.350;2023-04-16T09:28:10;3.87;;;2.53;;
2039;SDS011;1025;42.686;23.350;2023-04-16T09:31:36;3.50;;;2.33;;
2039;SDS011;1025;42.686;23.350;2023-04-16T09:35:01;3.30;;;2.63;;
2039;SDS011;1025;42.686;23.350;2023-04-16T09:38:30;4.47;;;2.40;;
2039;SDS011;1025;42.686;23.350;2023-04-16T09:42:09;5.70;;;3.63;;
2039;SDS011;1025;42.686;23.350;2023-04-16T09:45:47;14.70;;;6.87;;
2039;SDS011;1025;42.686;23.350;2023-04-16T09:49:13;2.87;;;2.53;;
2039;SDS011;1025;42.686;23.350;2023-04-16T09:52:41;2.63;;;2.43;;
2039;SDS011;1025;42.686;23.350;2023-04-16T09:56:08;3.47;;;2.67;;
2039;SDS011;1025;42.686;23.350;2023-04-16T09:59:34;2.60;;;2.40;;
2039;SDS011;1025;42.686;23.350;2023-04-16T10:03:03;3.70;;;2.73;;
2039;SDS011;1025;42.686;23.350;2023-04-16T10:06:31;4.40;;;2.87;;
2039;SDS011;1025;42.686;23.350;2023-04-16T10:10:00;4.80;;;2.43;;
2039;SDS011;1025;42.686;23.350;2023-04-16T10:13:27;6.90;;;3.90;;
2039;SDS011;1025;42.686;23.350;2023-04-16T10:16:53;5.57;;;3.10;;
2039;SDS011;1025;42.686;23.350;2023-04-16T10:20:19;4.07;;;2.77;;
2039;SDS011;1025;42.686;23.350;2023-04-16T10:23:44;7.60;;;3.50;;
2039;SDS011;1025;42.686;23.350;2023-04-16T10:27:11;6.40;;;3.43;;
2039;SDS011;1025;42.686;23.350;2023-04-16T10:30:38;2.97;;;2.40;;
2039;SDS011;1025;42.686;23.350;2023-04-16T10:34:04;3.97;;;2.63;;
2039;SDS011;1025;42.686;23.350;2023-04-16T10:37:30;9.73;;;3.37;;
2039;SDS011;1025;42.686;23.350;2023-04-16T10:41:01;9.43;;;3.20;;
2039;SDS011;1025;42.686;23.350;2023-04-16T10:44:34;3.83;;;3.07;;
2039;SDS011;1025;42.686;23.350;2023-04-16T10:48:03;8.30;;;2.37;;
2039;SDS011;1025;42.686;23.350;2023-04-16T10:51:38;4.50;;;3.43;;
2039;SDS011;1025;42.686;23.350;2023-04-16T10:55:05;5.27;;;2.53;;
2039;SDS011;1025;42.686;23.350;2023-04-16T10:58:40;8.60;;;3.47;;
2039;SDS011;1025;42.686;23.350;2023-04-16T11:02:08;3.30;;;3.00;;
2039;SDS011;1025;42.686;23.350;2023-04-16T11:05:43;2.90;;;2.70;;
2039;SDS011;1025;42.686;23.350;2023-04-16T11:09:50;4.00;;;2.10;;
2039;SDS011;1025;42.686;23.350;2023-04-16T11:13:16;4.37;;;2.10;;
2039;SDS011;1025;42.686;23.350;2023-04-16T11:16:43;2.33;;;2.13;;
2039;SDS011;1025;42.686;23.350;2023-04-16T11:20:09;2.70;;;2.37;;
2039;SDS011;1025;42.686;23.350;2023-04-16T11:23:48;2.40;;;2.20;;
2039;SDS011;1025;42.686;23.350;2023-04-16T11:27:18;4.07;;;2.03;;
2039;SDS011;1025;42.686;23.350;2023-04-16T11:30:44;2.50;;;1.53;;
2039;SDS011;1025;42.686;23.350;2023-04-16T11:34:16;4.57;;;2.23;;
2039;SDS011;1025;42.686;23.350;2023-04-16T11:37:43;3.27;;;2.27;;
2039;SDS011;1025;42.686;23.350;2023-04-16T11:41:09;5.63;;;1.70;;
2039;SDS011;1025;42.686;23.350;2023-04-16T11:52:11;2.80;;;1.80;;
2039;SDS011;1025;42.686;23.350;2023-04-16T11:55:41;3.67;;;2.40;;
2039;SDS011;1025;42.686;23.350;2023-04-16T11:59:11;5.93;;;2.73;;
2039;SDS011;1025;42.686;23.350;2023-04-16T12:02:38;3.00;;;2.30;;
2039;SDS011;1025;42.686;23.350;2023-04-16T12:06:13;2.10;;;1.90;;
2039;SDS011;1025;42.686;23.350;2023-04-16T12:09:39;4.93;;;3.47;;
2039;SDS011;1025;42.686;23.350;2023-04-16T12:13:27;2.03;;;1.83;;
2039;SDS011;1025;42.686;23.350;2023-04-16T12:21:18;7.57;;;2.00;;
2039;SDS011;1025;42.686;23.350;2023-04-16T12:24:43;4.37;;;1.83;;
2039;SDS011;1025;42.686;23.350;2023-04-16T12:28:08;1.93;;;1.83;;
2039;SDS011;1025;42.686;23.350;2023-04-16T12:31:42;2.40;;;2.20;;
2039;SDS011;1025;42.686;23.350;2023-04-16T12:35:09;2.13;;;1.87;;
2039;SDS011;1025;42.686;23.350;2023-04-16T12:38:46;5.70;;;2.17;;
2039;SDS011;1025;42.686;23.350;2023-04-16T12:42:11;2.80;;;1.93;;
2039;SDS011;1025;42.686;23.350;2023-04-16T12:45:39;1.90;;;1.80;;
2039;SDS011;1025;42.686;23.350;2023-04-16T12:49:06;5.13;;;1.63;;
2039;SDS011;1025;42.686;23.350;2023-04-16T12:57:03;2.90;;;1.77;;
2039;SDS011;1025;42.686;23.350;2023-04-16T13:00:42;3.20;;;1.93;;
2039;SDS011;1025;42.686;23.350;2023-04-16T13:04:22;5.53;;;2.20;;
2039;SDS011;1025;42.686;23.350;2023-04-16T13:16:43;5.83;;;4.00;;
2039;SDS011;1025;42.686;23.350;2023-04-16T13:20:18;2.93;;;2.50;;
2039;SDS011;1025;42.686;23.350;2023-04-16T13:23:45;3.10;;;2.80;;
2039;SDS011;1025;42.686;23.350;2023-04-16T13:27:24;2.60;;;2.40;;
2039;SDS011;1025;42.686;23.350;2023-04-16T13:30:56;4.93;;;2.73;;
2039;SDS011;1025;42.686;23.350;2023-04-16T13:34:22;5.03;;;3.30;;
2039;SDS011;1025;42.686;23.350;2023-04-16T13:37:48;2.13;;;2.03;;
2039;SDS011;1025;42.686;23.350;2023-04-16T13:41:15;3.87;;;2.70;;
2039;SDS011;1025;42.686;23.350;2023-04-16T13:44:40;2.30;;;2.10;;
2039;SDS011;1025;42.686;23.350;2023-04-16T13:48:07;2.60;;;2.43;;
2039;SDS011;1025;42.686;23.350;2023-04-16T13:51:33;3.10;;;2.30;;
2039;SDS011;1025;42.686;23.350;2023-04-16T13:54:58;4.70;;;2.53;;
2039;SDS011;1025;42.686;23.350;2023-04-16T13:58:24;4.60;;;3.00;;
2039;SDS011;1025;42.686;23.350;2023-04-16T14:01:50;2.80;;;2.50;;
2039;SDS011;1025;42.686;23.350;2023-04-16T14:05:17;4.97;;;2.10;;
2039;SDS011;1025;42.686;23.350;2023-04-16T14:08:42;4.77;;;2.80;;
2039;SDS011;1025;42.686;23.350;2023-04-16T14:12:08;3.00;;;2.80;;
2039;SDS011;1025;42.686;23.350;2023-04-16T14:15:33;3.13;;;2.33;;
2039;SDS011;1025;42.686;23.350;2023-04-16T14:18:58;3.80;;;2.30;;
2039;SDS011;1025;42.686;23.350;2023-04-16T14:22:25;4.20;;;2.80;;
2039;SDS011;1025;42.686;23.350;2023-04-16T14:25:51;5.00;;;3.43;;
2039;SDS011;1025;42.686;23.350;2023-04-16T14:29:16;4.00;;;3.40;;
2039;SDS011;1025;42.686;23.350;2023-04-16T14:32:41;3.33;;;2.30;;
2039;SDS011;1025;42.686;23.350;2023-04-16T14:36:07;2.60;;;2.40;;
2039;SDS011;1025;42.686;23.350;2023-04-16T14:39:34;6.43;;;2.87;;
2039;SDS011;1025;42.686;23.350;2023-04-16T14:42:59;2.73;;;2.20;;
2039;SDS011;1025;42.686;23.350;2023-04-16T14:46:25;3.13;;;2.60;;
2039;SDS011;1025;42.686;23.350;2023-04-16T14:49:49;3.50;;;2.90;;
2039;SDS011;1025;42.686;23.350;2023-04-16T14:53:15;5.30;;;3.10;;
2039;SDS011;1025;42.686;23.350;2023-04-16T14:56:41;5.20;;;3.00;;
2039;SDS011;1025;42.686;23.350;2023-04-16T15:00:07;2.90;;;2.60;;
2039;SDS011;1025;42.686;23.350;2023-04-16T15:03:33;5.43;;;2.60;;
2039;SDS011;1025;42.686;23.350;2023-04-16T15:06:58;3.67;;;3.37;;
2039;SDS011;1025;42.686;23.350;2023-04-16T15:10:24;4.27;;;3.00;;
2039;SDS011;1025;42.686;23.350;2023-04-16T15:13:51;4.60;;;4.20;;
2039;SDS011;1025;42.686;23.350;2023-04-16T15:17:16;4.40;;;3.73;;
2039;SDS011;1025;42.686;23.350;2023-04-16T15:20:42;3.40;;;3.10;;
2039;SDS011;1025;42.686;23.350;2023-04-16T15:24:07;6.60;;;3.43;;
2039;SDS011;1025;42.686;23.350;2023-04-16T15:27:33;3.77;;;3.33;;
2039;SDS011;1025;42.686;23.350;2023-04-16T15:31:00;7.23;;;4.97;;
2039;SDS011;1025;42.686;23.350;2023-04-16T15:34:25;3.40;;;3.10;;
2039;SDS011;1025;42.686;23.350;2023-04-16T15:37:51;6.60;;;3.50;;
2039;SDS011;1025;42.686;23.350;2023-04-16T15:41:16;3.27;;;2.17;;
2039;SDS011;1025;42.686;23.350;2023-04-16T15:44:41;6.70;;;3.87;;
2039;SDS011;1025;42.686;23.350;2023-04-16T15:48:08;5.67;;;3.10;;
2039;SDS011;1025;42.686;23.350;2023-04-16T15:51:33;2.60;;;2.40;;
2039;SDS011;1025;42.686;23.350;2023-04-16T15:54:59;4.37;;;2.90;;
2039;SDS011;1025;42.686;23.350;2023-04-16T15:58:25;3.33;;;3.13;;
2039;SDS011;1025;42.686;23.350;2023-04-16T16:01:50;5.03;;;3.73;;
2039;SDS011;1025;42.686;23.350;2023-04-16T16:05:17;8.00;;;3.73;;
2039;SDS011;1025;42.686;23.350;2023-04-16T16:08:44;5.23;;;4.00;;
2039;SDS011;1025;42.686;23.350;2023-04-16T16:12:11;4.60;;;3.30;;
2039;SDS011;1025;42.686;23.350;2023-04-16T16:15:42;4.07;;;3.63;;
2039;SDS011;1025;42.686;23.350;2023-04-16T16:19:07;4.53;;;3.70;;
2039;SDS011;1025;42.686;23.350;2023-04-16T16:22:36;3.73;;;3.37;;
2039;SDS011;1025;42.686;23.350;2023-04-16T16:26:01;2.97;;;2.73;;
2039;SDS011;1025;42.686;23.350;2023-04-16T16:29:26;7.00;;;2.80;;
2039;SDS011;1025;42.686;23.350;2023-04-16T16:32:52;3.80;;;3.40;;
2039;SDS011;1025;42.686;23.350;2023-04-16T16:36:17;3.30;;;3.00;;
2039;SDS011;1025;42.686;23.350;2023-04-16T16:39:44;3.30;;;3.10;;
2039;SDS011;1025;42.686;23.350;2023-04-16T16:43:09;3.43;;;3.17;;
2039;SDS011;1025;42.686;23.350;2023-04-16T16:46:35;5.07;;;4.53;;
2039;SDS011;1025;42.686;23.350;2023-04-16T16:50:00;3.30;;;3.00;;
2039;SDS011;1025;42.686;23.350;2023-04-16T16:53:26;4.87;;;2.97;;
2039;SDS011;1025;42.686;23.350;2023-04-16T16:56:51;2.70;;;2.50;;
2039;SDS011;1025;42.686;23.350;2023-04-16T17:00:16;2.70;;;2.50;;
2039;SDS011;1025;42.686;23.350;2023-04-16T17:03:42;3.47;;;2.73;;
2039;SDS011;1025;42.686;23.350;2023-04-16T17:07:08;3.77;;;3.20;;
2039;SDS011;1025;42.686;23.350;2023-04-16T17:10:33;9.00;;;3.33;;
2039;SDS011;1025;42.686;23.350;2023-04-16T17:14:00;2.93;;;2.20;;
2039;SDS011;1025;42.686;23.350;2023-04-16T17:17:26;3.30;;;3.10;;
2039;SDS011;1025;42.686;23.350;2023-04-16T17:20:51;4.77;;;2.60;;
2039;SDS011;1025;42.686;23.350;2023-04-16T17:23:46;5.03;;;3.00;;
2039;SDS011;1025;42.686;23.350;2023-04-16T17:27:11;7.10;;;4.03;;
2039;SDS011;1025;42.686;23.350;2023-04-16T17:30:38;4.67;;;2.60;;
2039;SDS011;1025;42.686;23.350;2023-04-16T17:34:03;5.70;;;5.07;;
2039;SDS011;1025;42.686;23.350;2023-04-16T17:37:31;6.50;;;3.60;;
2039;SDS011;1025;42.686;23.350;2023-04-16T17:40:57;3.97;;;3.00;;
2039;SDS011;1025;42.686;23.350;2023-04-16T17:44:25;3.13;;;2.87;;
2039;SDS011;1025;42.686;23.350;2023-04-16T17:47:39;5.53;;;3.23;;
2039;SDS011;1025;42.686;23.350;2023-04-16T17:51:08;5.00;;;3.47;;
2039;SDS011;1025;42.686;23.350;2023-04-16T17:54:33;5.33;;;3.50;;
2039;SDS011;1025;42.686;23.350;2023-04-16T17:57:59;3.83;;;3.53;;
2039;SDS011;1025;42.686;23.350;2023-04-16T18:01:25;4.23;;;3.93;;
2039;SDS011;1025;42.686;23.350;2023-04-16T18:04:52;3.97;;;3.70;;
2039;SDS011;1025;42.686;23.350;2023-04-16T18:08:17;4.00;;;3.70;;
2039;SDS011;1025;42.686;23.350;2023-04-16T18:11:43;4.50;;;4.13;;
2039;SDS011;1025;42.686;23.350;2023-04-16T18:15:09;4.40;;;4.10;;
2039;SDS011;1025;42.686;23.350;2023-04-16T18:18:03;4.57;;;4.27;;
2039;SDS011;1025;42.686;23.350;2023-04-16T18:21:31;3.70;;;3.40;;
2039;SDS011;1025;42.686;23.350;2023-04-16T18:24:56;4.70;;;3.63;;
2039;SDS011;1025;42.686;23.350;2023-04-16T18:28:21;6.07;;;5.40;;
2039;SDS011;1025;42.686;23.350;2023-04-16T18:31:46;6.90;;;4.83;;
2039;SDS011;1025;42.686;23.350;2023-04-16T18:35:12;4.43;;;4.00;;
2039;SDS011;1025;42.686;23.350;2023-04-16T18:38:39;4.63;;;4.23;;
2039;SDS011;1025;42.686;23.350;2023-04-16T18:42:04;5.60;;;4.63;;
2039;SDS011;1025;42.686;23.350;2023-04-16T18:45:29;5.00;;;4.50;;
2039;SDS011;1025;42.686;23.350;2023-04-16T18:48:55;5.03;;;4.63;;
2039;SDS011;1025;42.686;23.350;2023-04-16T18:52:20;4.50;;;4.10;;
2039;SDS011;1025;42.686;23.350;2023-04-16T18:55:47;6.47;;;4.80;;
2039;SDS011;1025;42.686;23.350;2023-04-16T18:59:16;14.37;;;5.30;;
2039;SDS011;1025;42.686;23.350;2023-04-16T19:02:42;7.63;;;5.37;;
2039;SDS011;1025;42.686;23.350;2023-04-16T19:06:07;9.13;;;4.40;;
2039;SDS011;1025;42.686;23.350;2023-04-16T19:09:32;8.47;;;4.73;;
2039;SDS011;1025;42.686;23.350;2023-04-16T19:12:59;7.27;;;4.60;;
2039;SDS011;1025;42.686;23.350;2023-04-16T19:16:27;24.30;;;6.30;;
2039;SDS011;1025;42.686;23.350;2023-04-16T19:19:52;9.50;;;5.30;;
2039;SDS011;1025;42.686;23.350;2023-04-16T19:23:23;8.43;;;5.00;;
2039;SDS011;1025;42.686;23.350;2023-04-16T19:26:49;5.93;;;3.77;;
2039;SDS011;1025;42.686;23.350;2023-04-16T19:30:16;9.30;;;4.13;;
2039;SDS011;1025;42.686;23.350;2023-04-16T19:33:42;2.70;;;2.50;;
2039;SDS011;1025;42.686;23.350;2023-04-16T19:37:07;3.97;;;3.13;;
2039;SDS011;1025;42.686;23.350;2023-04-16T19:40:32;4.00;;;3.57;;
2039;SDS011;1025;42.686;23.350;2023-04-16T19:43:57;11.50;;;3.77;;
2039;SDS011;1025;42.686;23.350;2023-04-16T19:47:24;3.20;;;3.00;;
2039;SDS011;1025;42.686;23.350;2023-04-16T19:50:50;4.27;;;3.87;;
2039;SDS011;1025;42.686;23.350;2023-04-16T19:54:15;10.63;;;4.30;;
2039;SDS011;1025;42.686;23.350;2023-04-16T19:57:41;3.93;;;3.53;;
2039;SDS011;1025;42.686;23.350;2023-04-16T20:01:07;4.60;;;4.20;;
2039;SDS011;1025;42.686;23.350;2023-04-16T20:04:34;5.23;;;4.77;;
2039;SDS011;1025;42.686;23.350;2023-04-16T20:07:59;4.90;;;4.50;;
2039;SDS011;1025;42.686;23.350;2023-04-16T20:11:24;9.03;;;4.60;;
2039;SDS011;1025;42.686;23.350;2023-04-16T20:14:50;3.53;;;3.23;;
2039;SDS011;1025;42.686;23.350;2023-04-16T20:18:17;4.17;;;3.77;;
2039;SDS011;1025;42.686;23.350;2023-04-16T20:21:41;11.57;;;4.10;;
2039;SDS011;1025;42.686;23.350;2023-04-16T20:25:07;4.00;;;3.27;;
2039;SDS011;1025;42.686;23.350;2023-04-16T20:28:33;4.73;;;3.87;;
2039;SDS011;1025;42.686;23.350;2023-04-16T20:31:59;3.67;;;3.37;;
2039;SDS011;1025;42.686;23.350;2023-04-16T20:35:24;3.53;;;3.10;;
2039;SDS011;1025;42.686;23.350;2023-04-16T20:38:51;3.53;;;3.23;;
2039;SDS011;1025;42.686;23.350;2023-04-16T20:42:18;4.57;;;3.73;;
2039;SDS011;1025;42.686;23.350;2023-04-16T20:45:43;6.20;;;3.67;;
2039;SDS011;1025;42.686;23.350;2023-04-16T20:49:13;3.93;;;3.63;;
2039;SDS011;1025;42.686;23.350;2023-04-16T20:52:38;8.57;;;4.17;;
2039;SDS011;1025;42.686;23.350;2023-04-16T20:56:06;4.47;;;4.10;;
2039;SDS011;1025;42.686;23.350;2023-04-16T20:59:31;4.50;;;3.90;;
2039;SDS011;1025;42.686;23.350;2023-04-16T21:02:56;3.90;;;3.60;;
2039;SDS011;1025;42.686;23.350;2023-04-16T21:06:22;3.73;;;3.43;;
2039;SDS011;1025;42.686;23.350;2023-04-16T21:09:47;4.20;;;3.80;;
2039;SDS011;1025;42.686;23.350;2023-04-16T21:13:14;4.20;;;3.90;;
2039;SDS011;1025;42.686;23.350;2023-04-16T21:16:40;4.13;;;3.73;;
2039;SDS011;1025;42.686;23.350;2023-04-16T21:20:06;4.27;;;3.90;;
2039;SDS011;1025;42.686;23.350;2023-04-16T21:23:31;5.90;;;5.40;;
2039;SDS011;1025;42.686;23.350;2023-04-16T21:26:57;5.40;;;4.90;;